sensor_id;sensor_type;location;lat;lon;timestamp;pressure;altitude;pressure_sealevel;temperature;humidity
35778;BME280;21899;42.662;23.316;2024-01-07T00:01:27;92905.50;;;14.73;48.82
35778;BME280;21899;42.662;23.316;2024-01-07T00:03:52;92911.63;;;14.55;49.22
35778;BME280;21899;42.662;23.316;2024-01-07T00:06:18;92902.53;;;14.71;48.68
35778;BME280;21899;42.662;23.316;2024-01-07T00:08:43;92899.97;;;14.67;48.82
35778;BME280;21899;42.662;23.316;2024-01-07T00:11:09;92889.53;;;14.69;48.37
35778;BME280;21899;42.662;23.316;2024-01-07T00:13:35;92890.72;;;14.77;48.00
35778;BME280;21899;42.662;23.316;2024-01-07T00:16:00;92877.28;;;14.77;48.19
35778;BME280;21899;42.662;23.316;2024-01-07T00:18:26;92875.72;;;14.58;48.06
35778;BME280;21899;42.662;23.316;2024-01-07T00:20:53;92885.31;;;14.68;47.99
35778;BME280;21899;42.662;23.316;2024-01-07T00:23:18;92883.06;;;14.67;48.41
35778;BME280;21899;42.662;23.316;2024-01-07T00:25:46;92870.91;;;14.53;48.42
35778;BME280;21899;42.662;23.316;2024-01-07T00:28:12;92863.72;;;14.41;48.67
35778;BME280;21899;42.662;23.316;2024-01-07T00:30:37;92863.22;;;14.33;49.28
35778;BME280;21899;42.662;23.316;2024-01-07T00:33:03;92870.88;;;14.35;49.76
35778;BME280;21899;42.662;23.316;2024-01-07T00:35:28;92849.25;;;14.17;50.45
35778;BME280;21899;42.662;23.316;2024-01-07T00:37:54;92839.81;;;14.52;49.67
35778;BME280;21899;42.662;23.316;2024-01-07T00:40:22;92844.56;;;14.39;49.69
35778;BME280;21899;42.662;23.316;2024-01-07T00:42:47;92835.47;;;14.15;50.22
35778;BME280;21899;42.662;23.316;2024-01-07T00:45:13;92833.31;;;14.31;49.94
35778;BME280;21899;42.662;23.316;2024-01-07T00:47:38;92823.16;;;14.35;49.66
35778;BME280;21899;42.662;23.316;2024-01-07T00:50:04;92815.09;;;14.45;49.67
35778;BME280;21899;42.662;23.316;2024-01-07T00:52:30;92817.81;;;14.63;49.02
35778;BME280;21899;42.662;23.316;2024-01-07T00:54:55;92799.72;;;14.63;49.07
35778;BME280;21899;42.662;23.316;2024-01-07T00:57:22;92805.28;;;14.78;49.07
35778;BME280;21899;42.662;23.316;2024-01-07T00:59:47;92795.41;;;14.75;48.62
35778;BME280;21899;42.662;23.316;2024-01-07T01:02:13;92798.84;;;14.66;48.92
35778;BME280;21899;42.662;23.316;2024-01-07T01:04:39;92801.53;;;14.66;49.09
35778;BME280;21899;42.662;23.316;2024-01-07T01:07:07;92795.53;;;14.53;49.21
35778;BME280;21899;42.662;23.316;2024-01-07T01:09:33;92806.03;;;14.60;49.23
35778;BME280;21899;42.662;23.316;2024-01-07T01:11:59;92791.31;;;14.43;49.61
35778;BME280;21899;42.662;23.316;2024-01-07T01:14:24;92782.38;;;14.55;49.90
35778;BME280;21899;42.662;23.316;2024-01-07T01:16:50;92777.28;;;14.66;49.68
35778;BME280;21899;42.662;23.316;2024-01-07T01:19:16;92759.94;;;14.76;49.43
35778;BME280;21899;42.662;23.316;2024-01-07T01:21:42;92758.16;;;14.82;48.89
35778;BME280;21899;42.662;23.316;2024-01-07T01:24:07;92746.78;;;14.96;48.84
35778;BME280;21899;42.662;23.316;2024-01-07T01:26:33;92744.06;;;15.14;48.73
35778;BME280;21899;42.662;23.316;2024-01-07T01:28:58;92736.53;;;15.27;48.37
35778;BME280;21899;42.662;23.316;2024-01-07T01:31:24;92731.13;;;15.36;47.92
35778;BME280;21899;42.662;23.316;2024-01-07T01:33:49;92716.47;;;15.28;48.03
35778;BME280;21899;42.662;23.316;2024-01-07T01:36:15;92712.13;;;15.31;47.73
35778;BME280;21899;42.662;23.316;2024-01-07T01:38:40;92717.66;;;15.36;47.28
35778;BME280;21899;42.662;23.316;2024-01-07T01:41:06;92704.50;;;15.29;46.89
35778;BME280;21899;42.662;23.316;2024-01-07T01:43:31;92696.88;;;15.19;47.36
35778;BME280;21899;42.662;23.316;2024-01-07T01:45:57;92688.38;;;15.11;47.53
35778;BME280;21899;42.662;23.316;2024-01-07T01:48:23;92693.31;;;15.13;47.55
35778;BME280;21899;42.662;23.316;2024-01-07T01:50:49;92682.38;;;15.16;47.04
35778;BME280;21899;42.662;23.316;2024-01-07T01:53:15;92659.28;;;15.24;47.10
35778;BME280;21899;42.662;23.316;2024-01-07T01:55:42;92660.81;;;15.16;47.19
35778;BME280;21899;42.662;23.316;2024-01-07T01:58:13;92664.13;;;15.11;47.90
35778;BME280;21899;42.662;23.316;2024-01-07T02:00:39;92664.53;;;15.19;47.61
35778;BME280;21899;42.662;23.316;2024-01-07T02:03:05;92657.81;;;15.14;47.87
35778;BME280;21899;42.662;23.316;2024-01-07T02:05:30;92662.28;;;15.17;47.45
35778;BME280;21899;42.662;23.316;2024-01-07T02:07:56;92669.91;;;15.19;47.26
35778;BME280;21899;42.662;23.316;2024-01-07T02:10:22;92668.59;;;15.23;47.63
35778;BME280;21899;42.662;23.316;2024-01-07T02:12:48;92672.97;;;15.03;48.08
35778;BME280;21899;42.662;23.316;2024-01-07T02:15:14;92667.13;;;15.13;48.14
35778;BME280;21899;42.662;23.316;2024-01-07T02:17:40;92653.47;;;15.17;48.39
35778;BME280;21899;42.662;23.316;2024-01-07T02:20:24;92641.19;;;15.16;48.26
35778;BME280;21899;42.662;23.316;2024-01-07T02:22:50;92626.31;;;15.29;47.85
35778;BME280;21899;42.662;23.316;2024-01-07T02:25:15;92608.94;;;15.39;47.84
35778;BME280;21899;42.662;23.316;2024-01-07T02:27:41;92587.97;;;15.43;47.91
35778;BME280;21899;42.662;23.316;2024-01-07T02:30:07;92581.66;;;15.46;47.65
35778;BME280;21899;42.662;23.316;2024-01-07T02:32:32;92575.97;;;15.35;48.05
35778;BME280;21899;42.662;23.316;2024-01-07T02:35:00;92580.44;;;15.47;48.54
35778;BME280;21899;42.662;23.316;2024-01-07T02:37:25;92571.56;;;15.56;48.06
35778;BME280;21899;42.662;23.316;2024-01-07T02:39:51;92572.38;;;15.38;48.82
35778;BME280;21899;42.662;23.316;2024-01-07T02:42:16;92568.59;;;15.12;49.98
35778;BME280;21899;42.662;23.316;2024-01-07T02:44:42;92567.34;;;15.22;50.51
35778;BME280;21899;42.662;23.316;2024-01-07T02:47:07;92564.00;;;15.36;51.46
35778;BME280;21899;42.662;23.316;2024-01-07T02:49:33;92570.63;;;15.59;51.32
35778;BME280;21899;42.662;23.316;2024-01-07T02:51:59;92584.59;;;15.81;51.09
35778;BME280;21899;42.662;23.316;2024-01-07T02:54:24;92569.72;;;15.62;50.92
35778;BME280;21899;42.662;23.316;2024-01-07T02:56:50;92582.63;;;15.58;48.88
35778;BME280;21899;42.662;23.316;2024-01-07T02:59:15;92583.09;;;15.56;48.13
35778;BME280;21899;42.662;23.316;2024-01-07T03:01:41;92587.56;;;15.27;48.23
35778;BME280;21899;42.662;23.316;2024-01-07T03:04:12;92592.97;;;15.27;49.21
35778;BME280;21899;42.662;23.316;2024-01-07T03:06:38;92585.97;;;15.11;52.94
35778;BME280;21899;42.662;23.316;2024-01-07T03:09:03;92586.47;;;15.33;55.03
35778;BME280;21899;42.662;23.316;2024-01-07T03:11:29;92596.28;;;15.78;56.07
35778;BME280;21899;42.662;23.316;2024-01-07T03:13:55;92603.66;;;16.16;56.30
35778;BME280;21899;42.662;23.316;2024-01-07T03:16:22;92614.44;;;16.39;53.39
35778;BME280;21899;42.662;23.316;2024-01-07T03:18:48;92627.66;;;16.37;50.42
35778;BME280;21899;42.662;23.316;2024-01-07T03:21:20;92625.31;;;16.07;49.08
35778;BME280;21899;42.662;23.316;2024-01-07T03:23:47;92623.63;;;15.95;49.87
35778;BME280;21899;42.662;23.316;2024-01-07T03:26:13;92628.41;;;15.43;52.18
35778;BME280;21899;42.662;23.316;2024-01-07T03:28:38;92634.00;;;15.22;55.22
35778;BME280;21899;42.662;23.316;2024-01-07T03:31:09;92615.00;;;15.82;52.93
35778;BME280;21899;42.662;23.316;2024-01-07T03:33:36;92610.19;;;15.86;53.15
35778;BME280;21899;42.662;23.316;2024-01-07T03:36:06;92611.91;;;15.98;52.85
35778;BME280;21899;42.662;23.316;2024-01-07T03:38:32;92610.28;;;15.68;54.51
35778;BME280;21899;42.662;23.316;2024-01-07T03:40:58;92618.38;;;15.68;55.14
35778;BME280;21899;42.662;23.316;2024-01-07T03:43:23;92598.56;;;15.71;55.13
35778;BME280;21899;42.662;23.316;2024-01-07T03:45:49;92603.44;;;15.57;54.60
35778;BME280;21899;42.662;23.316;2024-01-07T03:48:14;92596.63;;;15.06;56.74
35778;BME280;21899;42.662;23.316;2024-01-07T03:50:40;92585.97;;;15.11;56.27
35778;BME280;21899;42.662;23.316;2024-01-07T03:53:05;92589.72;;;15.14;56.22
35778;BME280;21899;42.662;23.316;2024-01-07T03:55:31;92594.34;;;14.72;58.82
35778;BME280;21899;42.662;23.316;2024-01-07T03:57:56;92594.06;;;14.52;59.40
35778;BME280;21899;42.662;23.316;2024-01-07T04:00:22;92589.41;;;14.70;59.38
35778;BME280;21899;42.662;23.316;2024-01-07T04:02:47;92586.63;;;14.97;58.42
35778;BME280;21899;42.662;23.316;2024-01-07T04:05:13;92577.81;;;14.97;58.82
35778;BME280;21899;42.662;23.316;2024-01-07T04:07:40;92575.19;;;15.11;58.97
35778;BME280;21899;42.662;23.316;2024-01-07T04:10:06;92575.88;;;14.97;59.40
35778;BME280;21899;42.662;23.316;2024-01-07T04:12:32;92559.78;;;14.61;61.18
35778;BME280;21899;42.662;23.316;2024-01-07T04:14:57;92570.03;;;14.90;60.22
35778;BME280;21899;42.662;23.316;2024-01-07T04:17:23;92567.94;;;14.94;60.61
35778;BME280;21899;42.662;23.316;2024-01-07T04:19:49;92575.44;;;15.22;59.58
35778;BME280;21899;42.662;23.316;2024-01-07T04:22:15;92568.66;;;15.03;60.62
35778;BME280;21899;42.662;23.316;2024-01-07T04:24:41;92578.88;;;15.23;60.13
35778;BME280;21899;42.662;23.316;2024-01-07T04:27:07;92575.28;;;15.58;59.39
35778;BME280;21899;42.662;23.316;2024-01-07T04:29:32;92574.25;;;15.80;58.33
35778;BME280;21899;42.662;23.316;2024-01-07T04:31:58;92568.50;;;15.87;58.06
35778;BME280;21899;42.662;23.316;2024-01-07T04:34:24;92559.16;;;15.73;57.68
35778;BME280;21899;42.662;23.316;2024-01-07T04:36:50;92556.50;;;15.64;57.82
35778;BME280;21899;42.662;23.316;2024-01-07T04:39:15;92540.66;;;15.33;58.86
35778;BME280;21899;42.662;23.316;2024-01-07T04:41:41;92530.34;;;14.99;60.41
35778;BME280;21899;42.662;23.316;2024-01-07T04:44:06;92539.53;;;15.16;60.31
35778;BME280;21899;42.662;23.316;2024-01-07T04:46:38;92545.09;;;15.45;59.44
35778;BME280;21899;42.662;23.316;2024-01-07T04:49:04;92550.38;;;15.63;58.44
35778;BME280;21899;42.662;23.316;2024-01-07T04:51:31;92554.28;;;15.62;58.10
35778;BME280;21899;42.662;23.316;2024-01-07T04:53:56;92553.66;;;15.68;57.98
35778;BME280;21899;42.662;23.316;2024-01-07T04:56:22;92552.81;;;15.61;57.81
35778;BME280;21899;42.662;23.316;2024-01-07T04:58:48;92550.44;;;15.22;58.83
35778;BME280;21899;42.662;23.316;2024-01-07T05:01:13;92564.91;;;15.33;59.05
35778;BME280;21899;42.662;23.316;2024-01-07T05:03:38;92574.75;;;15.45;58.92
35778;BME280;21899;42.662;23.316;2024-01-07T05:06:04;92542.47;;;15.04;60.25
35778;BME280;21899;42.662;23.316;2024-01-07T05:08:30;92543.31;;;15.10;60.77
35778;BME280;21899;42.662;23.316;2024-01-07T05:10:56;92551.16;;;15.31;60.06
35778;BME280;21899;42.662;23.316;2024-01-07T05:13:22;92539.69;;;15.45;59.27
35778;BME280;21899;42.662;23.316;2024-01-07T05:15:47;92533.13;;;15.37;59.40
35778;BME280;21899;42.662;23.316;2024-01-07T05:18:21;92527.44;;;15.44;59.46
35778;BME280;21899;42.662;23.316;2024-01-07T05:20:47;92534.56;;;15.56;59.00
35778;BME280;21899;42.662;23.316;2024-01-07T05:23:12;92540.75;;;15.72;58.50
35778;BME280;21899;42.662;23.316;2024-01-07T05:25:38;92546.56;;;15.94;57.39
35778;BME280;21899;42.662;23.316;2024-01-07T05:28:03;92545.44;;;15.86;57.50
35778;BME280;21899;42.662;23.316;2024-01-07T05:30:29;92549.34;;;15.85;57.44
35778;BME280;21899;42.662;23.316;2024-01-07T05:32:54;92551.03;;;15.97;56.99
35778;BME280;21899;42.662;23.316;2024-01-07T05:35:20;92551.31;;;15.99;57.06
35778;BME280;21899;42.662;23.316;2024-01-07T05:37:45;92543.94;;;15.85;57.24
35778;BME280;21899;42.662;23.316;2024-01-07T05:40:11;92544.97;;;15.63;57.89
35778;BME280;21899;42.662;23.316;2024-01-07T05:42:36;92533.13;;;15.46;58.04
35778;BME280;21899;42.662;23.316;2024-01-07T05:45:02;92531.94;;;15.38;58.66
35778;BME280;21899;42.662;23.316;2024-01-07T05:47:28;92525.59;;;15.50;58.51
35778;BME280;21899;42.662;23.316;2024-01-07T05:49:53;92519.31;;;15.53;58.21
35778;BME280;21899;42.662;23.316;2024-01-07T05:52:19;92533.91;;;15.61;57.90
35778;BME280;21899;42.662;23.316;2024-01-07T05:54:44;92544.88;;;15.82;57.56
35778;BME280;21899;42.662;23.316;2024-01-07T05:57:12;92559.31;;;15.93;57.01
35778;BME280;21899;42.662;23.316;2024-01-07T05:59:37;92561.94;;;16.02;56.92
35778;BME280;21899;42.662;23.316;2024-01-07T06:02:03;92552.75;;;15.38;57.92
35778;BME280;21899;42.662;23.316;2024-01-07T06:04:28;92536.81;;;15.25;58.98
35778;BME280;21899;42.662;23.316;2024-01-07T06:06:54;92530.47;;;15.05;59.26
35778;BME280;21899;42.662;23.316;2024-01-07T06:09:19;92524.69;;;14.88;60.08
35778;BME280;21899;42.662;23.316;2024-01-07T06:11:45;92535.81;;;15.14;59.05
35778;BME280;21899;42.662;23.316;2024-01-07T06:14:10;92531.28;;;15.52;58.36
35778;BME280;21899;42.662;23.316;2024-01-07T06:16:36;92530.22;;;15.74;57.04
35778;BME280;21899;42.662;23.316;2024-01-07T06:19:01;92531.56;;;15.54;57.18
35778;BME280;21899;42.662;23.316;2024-01-07T06:21:27;92536.94;;;15.78;56.93
35778;BME280;21899;42.662;23.316;2024-01-07T06:23:52;92538.75;;;15.96;56.56
35778;BME280;21899;42.662;23.316;2024-01-07T06:26:18;92537.19;;;16.04;56.00
35778;BME280;21899;42.662;23.316;2024-01-07T06:28:43;92542.28;;;16.02;56.09
35778;BME280;21899;42.662;23.316;2024-01-07T06:31:09;92545.69;;;16.11;55.96
35778;BME280;21899;42.662;23.316;2024-01-07T06:33:34;92538.56;;;15.85;56.47
35778;BME280;21899;42.662;23.316;2024-01-07T06:36:00;92550.66;;;15.89;56.97
35778;BME280;21899;42.662;23.316;2024-01-07T06:38:26;92564.00;;;16.07;56.28
35778;BME280;21899;42.662;23.316;2024-01-07T06:40:51;92561.31;;;16.22;55.99
35778;BME280;21899;42.662;23.316;2024-01-07T06:43:19;92562.63;;;16.26;55.74
35778;BME280;21899;42.662;23.316;2024-01-07T06:45:45;92570.84;;;16.32;55.46
35778;BME280;21899;42.662;23.316;2024-01-07T06:48:10;92575.56;;;16.46;55.26
35778;BME280;21899;42.662;23.316;2024-01-07T06:50:36;92571.75;;;16.52;55.23
35778;BME280;21899;42.662;23.316;2024-01-07T06:53:01;92572.28;;;16.04;56.15
35778;BME280;21899;42.662;23.316;2024-01-07T06:55:26;92570.06;;;16.17;56.22
35778;BME280;21899;42.662;23.316;2024-01-07T06:57:52;92568.97;;;16.38;55.38
35778;BME280;21899;42.662;23.316;2024-01-07T07:00:18;92571.28;;;16.54;55.34
35778;BME280;21899;42.662;23.316;2024-01-07T07:02:43;92559.53;;;16.57;55.24
35778;BME280;21899;42.662;23.316;2024-01-07T07:05:09;92573.78;;;16.57;55.29
35778;BME280;21899;42.662;23.316;2024-01-07T07:07:34;92578.91;;;16.70;55.26
35778;BME280;21899;42.662;23.316;2024-01-07T07:10:00;92575.56;;;16.75;54.65
35778;BME280;21899;42.662;23.316;2024-01-07T07:12:25;92563.22;;;16.45;55.11
35778;BME280;21899;42.662;23.316;2024-01-07T07:14:51;92557.63;;;16.34;55.39
35778;BME280;21899;42.662;23.316;2024-01-07T07:17:16;92554.22;;;16.48;55.42
35778;BME280;21899;42.662;23.316;2024-01-07T07:19:42;92555.41;;;16.76;54.70
35778;BME280;21899;42.662;23.316;2024-01-07T07:22:07;92540.78;;;16.82;54.47
35778;BME280;21899;42.662;23.316;2024-01-07T07:24:33;92545.00;;;16.69;54.65
35778;BME280;21899;42.662;23.316;2024-01-07T07:26:58;92540.03;;;16.97;53.73
35778;BME280;21899;42.662;23.316;2024-01-07T07:29:24;92539.16;;;17.20;53.01
35778;BME280;21899;42.662;23.316;2024-01-07T07:31:50;92552.91;;;17.36;52.69
35778;BME280;21899;42.662;23.316;2024-01-07T07:34:15;92550.22;;;17.36;52.03
35778;BME280;21899;42.662;23.316;2024-01-07T07:36:40;92567.91;;;17.37;51.62
35778;BME280;21899;42.662;23.316;2024-01-07T07:39:08;92573.59;;;17.54;51.69
35778;BME280;21899;42.662;23.316;2024-01-07T07:41:34;92551.41;;;17.01;51.60
35778;BME280;21899;42.662;23.316;2024-01-07T07:44:00;92544.41;;;16.94;51.67
35778;BME280;21899;42.662;23.316;2024-01-07T07:46:25;92549.19;;;16.84;52.36
35778;BME280;21899;42.662;23.316;2024-01-07T07:48:51;92544.22;;;17.12;51.86
35778;BME280;21899;42.662;23.316;2024-01-07T07:51:16;92550.38;;;17.47;51.44
35778;BME280;21899;42.662;23.316;2024-01-07T07:53:42;92546.78;;;17.21;51.82
35778;BME280;21899;42.662;23.316;2024-01-07T07:56:08;92539.34;;;16.52;53.37
35778;BME280;21899;42.662;23.316;2024-01-07T07:58:34;92541.63;;;16.59;53.88
35778;BME280;21899;42.662;23.316;2024-01-07T08:00:59;92547.59;;;16.63;53.78
35778;BME280;21899;42.662;23.316;2024-01-07T08:03:25;92542.38;;;17.04;53.54
35778;BME280;21899;42.662;23.316;2024-01-07T08:05:50;92534.88;;;17.13;53.04
35778;BME280;21899;42.662;23.316;2024-01-07T08:08:16;92552.78;;;17.11;52.32
35778;BME280;21899;42.662;23.316;2024-01-07T08:10:44;92553.03;;;17.62;51.35
35778;BME280;21899;42.662;23.316;2024-01-07T08:13:10;92558.94;;;17.80;50.97
35778;BME280;21899;42.662;23.316;2024-01-07T08:15:35;92552.16;;;17.70;50.81
35778;BME280;21899;42.662;23.316;2024-01-07T08:18:03;92546.44;;;17.63;50.17
35778;BME280;21899;42.662;23.316;2024-01-07T08:20:28;92544.59;;;17.74;49.98
35778;BME280;21899;42.662;23.316;2024-01-07T08:22:54;92544.81;;;18.11;50.09
35778;BME280;21899;42.662;23.316;2024-01-07T08:25:20;92535.84;;;18.25;49.93
35778;BME280;21899;42.662;23.316;2024-01-07T08:27:45;92544.28;;;18.33;49.42
35778;BME280;21899;42.662;23.316;2024-01-07T08:30:11;92535.19;;;17.90;49.88
35778;BME280;21899;42.662;23.316;2024-01-07T08:32:39;92537.16;;;17.69;49.74
35778;BME280;21899;42.662;23.316;2024-01-07T08:35:05;92542.78;;;17.66;49.91
35778;BME280;21899;42.662;23.316;2024-01-07T08:37:30;92547.03;;;17.92;50.07
35778;BME280;21899;42.662;23.316;2024-01-07T08:39:56;92550.69;;;17.89;50.24
35778;BME280;21899;42.662;23.316;2024-01-07T08:42:21;92549.81;;;17.78;50.56
35778;BME280;21899;42.662;23.316;2024-01-07T08:44:47;92547.31;;;18.14;49.87
35778;BME280;21899;42.662;23.316;2024-01-07T08:47:13;92545.41;;;18.20;49.36
35778;BME280;21899;42.662;23.316;2024-01-07T08:49:38;92551.16;;;18.08;50.30
35778;BME280;21899;42.662;23.316;2024-01-07T08:52:04;92544.81;;;18.11;50.36
35778;BME280;21899;42.662;23.316;2024-01-07T08:54:30;92537.28;;;18.00;50.38
35778;BME280;21899;42.662;23.316;2024-01-07T08:56:55;92530.19;;;18.03;50.62
35778;BME280;21899;42.662;23.316;2024-01-07T08:59:21;92534.75;;;17.91;49.41
35778;BME280;21899;42.662;23.316;2024-01-07T09:01:46;92539.44;;;18.16;49.41
35778;BME280;21899;42.662;23.316;2024-01-07T09:04:12;92528.47;;;18.26;50.23
35778;BME280;21899;42.662;23.316;2024-01-07T09:06:38;92525.19;;;18.42;49.81
35778;BME280;21899;42.662;23.316;2024-01-07T09:09:03;92527.97;;;17.81;49.58
35778;BME280;21899;42.662;23.316;2024-01-07T09:11:32;92534.00;;;18.16;49.84
35778;BME280;21899;42.662;23.316;2024-01-07T09:13:57;92532.59;;;18.21;49.28
35778;BME280;21899;42.662;23.316;2024-01-07T09:16:23;92545.03;;;18.33;49.04
35778;BME280;21899;42.662;23.316;2024-01-07T09:18:48;92551.91;;;18.80;48.44
35778;BME280;21899;42.662;23.316;2024-01-07T09:21:14;92551.41;;;19.07;47.52
35778;BME280;21899;42.662;23.316;2024-01-07T09:23:40;92551.47;;;19.18;47.14
35778;BME280;21899;42.662;23.316;2024-01-07T09:26:07;92550.94;;;19.14;46.91
35778;BME280;21899;42.662;23.316;2024-01-07T09:28:32;92546.31;;;19.20;46.63
35778;BME280;21899;42.662;23.316;2024-01-07T09:30:58;92543.81;;;19.16;46.39
35778;BME280;21899;42.662;23.316;2024-01-07T09:33:23;92531.00;;;19.54;46.11
35778;BME280;21899;42.662;23.316;2024-01-07T09:35:50;92539.31;;;19.39;45.56
35778;BME280;21899;42.662;23.316;2024-01-07T09:38:15;92532.88;;;19.73;45.03
35778;BME280;21899;42.662;23.316;2024-01-07T09:40:41;92537.19;;;20.07;44.39
35778;BME280;21899;42.662;23.316;2024-01-07T09:43:07;92540.53;;;20.39;44.15
35778;BME280;21899;42.662;23.316;2024-01-07T09:45:36;92535.19;;;20.72;43.37
35778;BME280;21899;42.662;23.316;2024-01-07T09:48:02;92541.84;;;20.77;42.40
35778;BME280;21899;42.662;23.316;2024-01-07T09:50:27;92543.78;;;20.59;42.58
35778;BME280;21899;42.662;23.316;2024-01-07T09:52:56;92540.81;;;20.52;42.28
35778;BME280;21899;42.662;23.316;2024-01-07T09:55:40;92540.34;;;20.64;42.13
35778;BME280;21899;42.662;23.316;2024-01-07T09:58:08;92539.88;;;20.71;42.01
35778;BME280;21899;42.662;23.316;2024-01-07T10:00:34;92530.47;;;20.61;41.96
35778;BME280;21899;42.662;23.316;2024-01-07T10:03:00;92523.78;;;20.57;41.59
35778;BME280;21899;42.662;23.316;2024-01-07T10:05:25;92530.47;;;20.61;41.73
35778;BME280;21899;42.662;23.316;2024-01-07T10:07:51;92525.47;;;20.32;42.21
35778;BME280;21899;42.662;23.316;2024-01-07T10:10:20;92516.81;;;20.23;42.61
35778;BME280;21899;42.662;23.316;2024-01-07T10:12:47;92513.81;;;20.26;42.94
35778;BME280;21899;42.662;23.316;2024-01-07T10:15:13;92513.47;;;20.02;42.72
35778;BME280;21899;42.662;23.316;2024-01-07T10:17:41;92512.25;;;19.98;42.51
35778;BME280;21899;42.662;23.316;2024-01-07T10:20:07;92506.03;;;19.86;43.22
35778;BME280;21899;42.662;23.316;2024-01-07T10:22:37;92501.97;;;19.65;43.38
35778;BME280;21899;42.662;23.316;2024-01-07T10:25:06;92474.06;;;19.17;43.78
35778;BME280;21899;42.662;23.316;2024-01-07T10:27:37;92494.78;;;19.20;43.93
35778;BME280;21899;42.662;23.316;2024-01-07T10:30:03;92485.44;;;19.63;43.31
35778;BME280;21899;42.662;23.316;2024-01-07T10:32:29;92467.16;;;19.58;43.38
35778;BME280;21899;42.662;23.316;2024-01-07T10:35:02;92471.75;;;19.41;43.02
35778;BME280;21899;42.662;23.316;2024-01-07T10:37:30;92472.88;;;19.23;44.01
35778;BME280;21899;42.662;23.316;2024-01-07T10:39:59;92468.06;;;19.44;43.55
35778;BME280;21899;42.662;23.316;2024-01-07T10:42:33;92472.06;;;19.54;42.68
35778;BME280;21899;42.662;23.316;2024-01-07T10:45:02;92470.94;;;19.72;42.15
35778;BME280;21899;42.662;23.316;2024-01-07T10:47:30;92468.78;;;20.03;41.83
35778;BME280;21899;42.662;23.316;2024-01-07T10:50:01;92469.78;;;20.06;41.35
35778;BME280;21899;42.662;23.316;2024-01-07T10:52:27;92466.28;;;19.89;40.74
35778;BME280;21899;42.662;23.316;2024-01-07T10:54:57;92472.94;;;19.88;41.26
35778;BME280;21899;42.662;23.316;2024-01-07T10:57:38;92472.88;;;20.52;40.56
35778;BME280;21899;42.662;23.316;2024-01-07T11:00:06;92467.09;;;20.11;40.18
35778;BME280;21899;42.662;23.316;2024-01-07T11:02:44;92471.16;;;20.65;39.56
35778;BME280;21899;42.662;23.316;2024-01-07T11:08:15;92466.69;;;21.12;39.39
35778;BME280;21899;42.662;23.316;2024-01-07T11:10:48;92478.59;;;20.87;39.22
35778;BME280;21899;42.662;23.316;2024-01-07T11:13:34;92485.50;;;20.99;39.62
35778;BME280;21899;42.662;23.316;2024-01-07T11:16:02;92469.16;;;21.38;39.42
35778;BME280;21899;42.662;23.316;2024-01-07T11:18:28;92469.09;;;21.60;39.20
35778;BME280;21899;42.662;23.316;2024-01-07T11:21:02;92470.53;;;21.72;38.28
35778;BME280;21899;42.662;23.316;2024-01-07T11:23:30;92470.06;;;21.57;38.41
35778;BME280;21899;42.662;23.316;2024-01-07T11:25:57;92466.97;;;21.09;39.40
35778;BME280;21899;42.662;23.316;2024-01-07T11:28:42;92473.63;;;20.97;39.58
35778;BME280;21899;42.662;23.316;2024-01-07T11:31:08;92461.97;;;21.29;39.15
35778;BME280;21899;42.662;23.316;2024-01-07T11:33:36;92471.63;;;21.36;38.62
35778;BME280;21899;42.662;23.316;2024-01-07T11:36:03;92473.88;;;21.26;38.58
35778;BME280;21899;42.662;23.316;2024-01-07T11:38:29;92469.16;;;20.83;39.07
35778;BME280;21899;42.662;23.316;2024-01-07T11:40:56;92472.16;;;20.96;39.14
35778;BME280;21899;42.662;23.316;2024-01-07T11:43:22;92478.84;;;21.11;39.14
35778;BME280;21899;42.662;23.316;2024-01-07T11:45:51;92477.06;;;21.36;38.67
35778;BME280;21899;42.662;23.316;2024-01-07T11:48:18;92478.97;;;21.63;38.59
35778;BME280;21899;42.662;23.316;2024-01-07T11:50:44;92476.22;;;21.74;38.02
35778;BME280;21899;42.662;23.316;2024-01-07T11:53:11;92478.81;;;22.07;37.46
35778;BME280;21899;42.662;23.316;2024-01-07T11:55:37;92480.09;;;22.06;37.61
35778;BME280;21899;42.662;23.316;2024-01-07T11:58:03;92480.97;;;22.25;37.24
35778;BME280;21899;42.662;23.316;2024-01-07T12:00:33;92478.66;;;22.40;36.77
35778;BME280;21899;42.662;23.316;2024-01-07T12:03:00;92469.03;;;22.34;36.93
35778;BME280;21899;42.662;23.316;2024-01-07T12:05:27;92470.19;;;22.49;36.65
35778;BME280;21899;42.662;23.316;2024-01-07T12:07:53;92468.59;;;22.65;36.67
35778;BME280;21899;42.662;23.316;2024-01-07T12:10:18;92470.59;;;22.64;36.37
35778;BME280;21899;42.662;23.316;2024-01-07T12:12:44;92470.97;;;22.79;36.27
35778;BME280;21899;42.662;23.316;2024-01-07T12:15:10;92469.50;;;22.78;36.50
35778;BME280;21899;42.662;23.316;2024-01-07T12:17:39;92474.31;;;22.61;36.46
35778;BME280;21899;42.662;23.316;2024-01-07T12:20:05;92472.88;;;22.55;36.60
35778;BME280;21899;42.662;23.316;2024-01-07T12:22:32;92480.28;;;22.60;36.62
35778;BME280;21899;42.662;23.316;2024-01-07T12:25:05;92487.50;;;22.52;36.58
35778;BME280;21899;42.662;23.316;2024-01-07T12:27:31;92484.03;;;22.51;36.48
35778;BME280;21899;42.662;23.316;2024-01-07T12:29:58;92476.69;;;22.35;36.85
35778;BME280;21899;42.662;23.316;2024-01-07T12:32:27;92475.06;;;22.16;37.36
35778;BME280;21899;42.662;23.316;2024-01-07T12:34:53;92477.34;;;22.06;37.20
35778;BME280;21899;42.662;23.316;2024-01-07T12:37:19;92476.88;;;21.96;37.15
35778;BME280;21899;42.662;23.316;2024-01-07T12:39:44;92474.47;;;21.82;37.51
35778;BME280;21899;42.662;23.316;2024-01-07T12:42:10;92480.69;;;21.77;37.20
35778;BME280;21899;42.662;23.316;2024-01-07T12:44:38;92475.97;;;21.77;37.50
35778;BME280;21899;42.662;23.316;2024-01-07T12:47:03;92464.56;;;21.84;37.40
35778;BME280;21899;42.662;23.316;2024-01-07T12:49:29;92467.31;;;21.79;37.34